Time;durP1;ratioP1;P1;durP2;ratioP2;P2;SDS_P1;SDS_P2;PMS_P1;PMS_P2;Temp;Humidity;BMP_temperature;BMP_pressure;BME280_temperature;BME280_humidity;BME280_pressure;Samples;Min_cycle;Max_cycle;Signal;HPM_P1;HPM_P2
2021/08/21 00:00:37;;;;;;;7.57;6.20;;;17.20;89.70;;;;;;2057743;28;20023;-88
2021/08/21 00:01:37;;;;;;;7.30;5.82;;;17.20;89.60;;;;;;2055069;28;20083;-93
2021/08/21 00:02:38;;;;;;;7.43;6.00;;;17.20;89.70;;;;;;2045220;28;20692;-93
2021/08/21 00:03:39;;;;;;;7.30;6.10;;;17.20;89.60;;;;;;2054535;28;20034;-93
2021/08/21 00:04:39;;;;;;;7.95;6.00;;;17.10;89.60;;;;;;2046993;28;20039;-93
2021/08/21 00:05:40;;;;;;;7.72;6.28;;;17.20;89.60;;;;;;2031216;29;20251;-93
2021/08/21 00:06:42;;;;;;;7.80;6.07;;;17.10;89.70;;;;;;2046740;28;20039;-93
2021/08/21 00:07:43;;;;;;;9.30;6.57;;;17.10;89.60;;;;;;2039255;28;20040;-93
2021/08/21 00:08:43;;;;;;;7.63;6.32;;;17.10;89.70;;;;;;2031015;29;20040;-93
2021/08/21 00:09:46;;;;;;;7.05;6.05;;;17.10;89.60;;;;;;2038213;29;20110;-93
2021/08/21 00:10:47;;;;;;;7.95;6.47;;;17.10;89.60;;;;;;2047271;28;20032;-93
2021/08/21 00:11:53;;;;;;;8.18;6.93;;;17.10;89.70;;;;;;2055130;28;20584;-93
2021/08/21 00:12:54;;;;;;;7.63;6.40;;;17.10;89.70;;;;;;2055790;28;20042;-93
2021/08/21 00:13:55;;;;;;;8.05;6.50;;;17.10;89.70;;;;;;2055053;28;20073;-93
2021/08/21 00:14:57;;;;;;;7.65;6.38;;;17.10;89.70;;;;;;2039760;29;20068;-93
2021/08/21 00:15:58;;;;;;;8.07;6.82;;;17.10;89.80;;;;;;2042583;28;20123;-93
2021/08/21 00:16:59;;;;;;;7.85;6.45;;;17.00;89.80;;;;;;2050560;28;20035;-93
2021/08/21 00:18:00;;;;;;;7.95;6.15;;;17.00;89.70;;;;;;2062816;28;20026;-92
2021/08/21 00:19:01;;;;;;;8.27;6.90;;;17.10;89.80;;;;;;2049295;28;20020;-91
2021/08/21 00:20:02;;;;;;;9.77;6.97;;;17.00;89.70;;;;;;2056081;28;20122;-89
2021/08/21 00:21:03;;;;;;;7.93;6.32;;;17.00;89.70;;;;;;2064154;28;20119;-94
2021/08/21 00:22:03;;;;;;;8.80;6.75;;;17.00;89.80;;;;;;2057943;28;20035;-93
2021/08/21 00:23:04;;;;;;;8.75;6.90;;;17.00;89.80;;;;;;2046845;28;20031;-92
2021/08/21 00:24:06;;;;;;;7.90;6.53;;;17.00;89.80;;;;;;2047434;28;20046;-93
2021/08/21 00:25:08;;;;;;;8.48;6.60;;;17.00;89.80;;;;;;2054402;28;20031;-92
2021/08/21 00:26:09;;;;;;;8.43;6.97;;;17.00;89.90;;;;;;2055814;28;20068;-92
2021/08/21 00:27:10;;;;;;;8.70;6.88;;;16.90;89.90;;;;;;2049724;28;20055;-93
2021/08/21 00:28:11;;;;;;;7.90;6.70;;;16.90;89.90;;;;;;2057281;28;20043;-93
2021/08/21 00:29:12;;;;;;;9.82;7.28;;;17.00;90.00;;;;;;2051833;28;20556;-92
2021/08/21 00:30:13;;;;;;;8.35;6.70;;;16.90;90.00;;;;;;2063287;28;20097;-93
2021/08/21 00:31:14;;;;;;;8.52;6.68;;;16.90;90.00;;;;;;2062624;28;20030;-92
2021/08/21 00:32:15;;;;;;;8.68;6.70;;;16.90;90.00;;;;;;2048355;28;20051;-92
2021/08/21 00:33:15;;;;;;;9.27;7.10;;;16.90;90.00;;;;;;2053517;28;20111;-92
2021/08/21 00:34:16;;;;;;;8.15;6.65;;;16.90;90.00;;;;;;2045684;28;20127;-91
2021/08/21 00:35:17;;;;;;;8.30;6.72;;;16.90;90.00;;;;;;2053302;28;20505;-92
2021/08/21 00:36:17;;;;;;;8.88;6.65;;;16.90;90.00;;;;;;2045849;28;20078;-93
2021/08/21 00:37:18;;;;;;;8.43;6.78;;;16.90;90.00;;;;;;2044474;28;20043;-92
2021/08/21 00:38:19;;;;;;;8.43;6.78;;;16.90;90.00;;;;;;2047460;28;20043;-93
2021/08/21 00:39:20;;;;;;;9.35;6.90;;;16.90;90.00;;;;;;2030275;29;20048;-92
2021/08/21 00:40:20;;;;;;;8.73;7.00;;;16.90;90.00;;;;;;2029579;29;20112;-92
2021/08/21 00:41:21;;;;;;;8.48;6.65;;;16.80;90.00;;;;;;2037854;29;20176;-93
2021/08/21 00:42:22;;;;;;;8.05;6.72;;;16.80;90.10;;;;;;2053278;28;20122;-92
2021/08/21 00:43:24;;;;;;;9.15;6.35;;;16.80;90.30;;;;;;2053207;28;20366;-92
2021/08/21 00:44:25;;;;;;;8.65;6.40;;;16.80;90.10;;;;;;2046077;28;20042;-92
2021/08/21 00:45:25;;;;;;;9.10;7.38;;;16.80;90.00;;;;;;2037575;29;20055;-92
2021/08/21 00:46:26;;;;;;;8.80;7.30;;;16.80;90.00;;;;;;2038799;29;20087;-92
2021/08/21 00:47:27;;;;;;;9.10;7.30;;;16.80;90.10;;;;;;2052388;28;20050;-92
2021/08/21 00:48:27;;;;;;;7.82;6.57;;;16.80;90.00;;;;;;2061248;28;20940;-92
2021/08/21 00:49:28;;;;;;;9.70;7.38;;;16.80;90.10;;;;;;2053618;28;20513;-92
2021/08/21 00:50:29;;;;;;;9.80;7.28;;;16.80;90.10;;;;;;2055087;28;20035;-92
2021/08/21 00:51:30;;;;;;;10.43;8.00;;;16.80;90.10;;;;;;2054689;28;20102;-92
2021/08/21 00:52:34;;;;;;;9.80;7.82;;;16.70;90.20;;;;;;2054606;28;20041;-92
2021/08/21 00:53:36;;;;;;;9.18;7.50;;;16.70;90.10;;;;;;2061597;28;20082;-92
2021/08/21 00:54:39;;;;;;;10.30;8.15;;;16.70;90.10;;;;;;2063513;28;20133;-92
2021/08/21 00:55:39;;;;;;;9.80;8.15;;;16.70;90.10;;;;;;2054198;28;20043;-92
2021/08/21 00:56:40;;;;;;;9.70;7.95;;;16.70;90.10;;;;;;2033650;29;20044;-93
2021/08/21 00:57:41;;;;;;;9.65;7.85;;;16.80;90.10;;;;;;2040632;29;20130;-92
2021/08/21 00:58:43;;;;;;;9.88;7.60;;;16.70;90.00;;;;;;2045843;28;20042;-93
2021/08/21 00:59:46;;;;;;;9.32;7.85;;;16.70;90.10;;;;;;2038602;29;20140;-93
2021/08/21 01:00:47;;;;;;;10.65;8.40;;;16.70;90.10;;;;;;2041631;28;20039;-93
2021/08/21 01:01:48;;;;;;;11.10;8.50;;;16.70;90.10;;;;;;2053075;28;20035;-92
2021/08/21 01:02:49;;;;;;;10.35;8.50;;;16.70;90.10;;;;;;2054439;28;20038;-93
2021/08/21 01:03:50;;;;;;;10.20;8.38;;;16.70;90.20;;;;;;2055094;28;20050;-92
2021/08/21 01:04:56;;;;;;;9.50;8.20;;;16.70;90.20;;;;;;2060260;28;20054;-92
2021/08/21 01:05:58;;;;;;;9.48;8.00;;;16.70;90.20;;;;;;2070357;28;20126;-93
2021/08/21 01:07:26;;;;;;;10.90;8.48;;;16.60;90.20;;;;;;2067421;28;20039;-93
2021/08/21 01:08:27;;;;;;;10.25;8.18;;;16.70;90.20;;;;;;2058663;28;20970;-93
2021/08/21 01:09:27;;;;;;;10.00;8.52;;;16.60;90.20;;;;;;2055700;28;20058;-92
2021/08/21 01:10:28;;;;;;;10.13;7.72;;;16.60;90.20;;;;;;2048897;28;20047;-93
2021/08/21 01:11:31;;;;;;;10.13;8.25;;;16.60;90.20;;;;;;2060586;28;20030;-93
2021/08/21 01:12:34;;;;;;;10.23;8.70;;;16.60;90.20;;;;;;2053333;28;20134;-93
2021/08/21 01:13:35;;;;;;;10.63;8.82;;;16.60;90.20;;;;;;2061764;28;20081;-92
2021/08/21 01:14:36;;;;;;;10.48;8.27;;;16.60;90.20;;;;;;2060566;28;20125;-92
2021/08/21 01:15:37;;;;;;;10.50;8.52;;;16.60;90.20;;;;;;2062956;28;20727;-92
2021/08/21 01:16:39;;;;;;;10.77;8.50;;;16.60;90.20;;;;;;2045652;28;20081;-92
2021/08/21 01:17:40;;;;;;;10.27;8.18;;;16.60;90.20;;;;;;2048136;28;20042;-92
2021/08/21 01:18:42;;;;;;;10.07;8.32;;;16.60;90.20;;;;;;2055951;28;20035;-92
2021/08/21 01:19:46;;;;;;;10.82;8.05;;;16.50;90.20;;;;;;2047736;28;20047;-92
2021/08/21 01:20:47;;;;;;;10.45;8.18;;;16.50;90.20;;;;;;2054969;28;20035;-93
2021/08/21 01:21:47;;;;;;;10.55;8.35;;;16.50;90.30;;;;;;2047014;28;20028;-93
2021/08/21 01:22:49;;;;;;;10.55;8.45;;;16.50;90.30;;;;;;2038078;28;20063;-93
2021/08/21 01:23:50;;;;;;;10.43;8.43;;;16.50;90.30;;;;;;2055041;28;20575;-93
2021/08/21 01:24:53;;;;;;;10.02;8.38;;;16.50;90.30;;;;;;2070695;28;20045;-92
2021/08/21 01:25:54;;;;;;;9.88;8.15;;;16.50;90.60;;;;;;2053518;28;20046;-93
2021/08/21 01:26:57;;;;;;;10.38;8.52;;;16.50;90.30;;;;;;2055127;28;20049;-91
2021/08/21 01:27:58;;;;;;;10.10;8.57;;;16.50;90.30;;;;;;2045904;28;20047;-91
2021/08/21 01:28:59;;;;;;;9.70;7.85;;;16.50;90.60;;;;;;2039205;28;20036;-92
2021/08/21 01:30:00;;;;;;;9.82;8.20;;;16.50;90.40;;;;;;2039374;29;20051;-92
2021/08/21 01:31:04;;;;;;;10.35;7.93;;;16.40;90.40;;;;;;2045626;28;20063;-92
2021/08/21 01:32:05;;;;;;;11.35;8.07;;;16.50;90.40;;;;;;2047455;28;20047;-92
2021/08/21 01:33:05;;;;;;;10.68;8.77;;;16.50;90.40;;;;;;2041350;28;20086;-92
2021/08/21 01:34:06;;;;;;;10.75;8.55;;;16.50;90.40;;;;;;2048082;28;20046;-92
2021/08/21 01:35:08;;;;;;;10.45;8.35;;;16.50;90.40;;;;;;2045638;28;20505;-93
2021/08/21 01:36:09;;;;;;;9.65;8.15;;;16.40;90.40;;;;;;2059117;28;20038;-92
2021/08/21 01:37:11;;;;;;;9.38;7.78;;;16.40;90.40;;;;;;2049155;28;20070;-92
2021/08/21 01:38:11;;;;;;;10.48;8.20;;;16.50;90.40;;;;;;2053632;28;20054;-92
2021/08/21 01:39:13;;;;;;;10.73;8.13;;;16.40;90.40;;;;;;2047143;28;20544;-92
2021/08/21 01:40:14;;;;;;;9.90;8.20;;;16.40;90.40;;;;;;2046097;28;20032;-92
2021/08/21 01:41:15;;;;;;;9.75;8.05;;;16.40;90.40;;;;;;2062181;28;20066;-92
2021/08/21 01:42:17;;;;;;;10.65;8.25;;;16.40;90.40;;;;;;2061049;28;20047;-92
2021/08/21 01:43:18;;;;;;;11.45;8.50;;;16.40;90.40;;;;;;2056015;28;20038;-92
2021/08/21 01:44:19;;;;;;;10.05;8.32;;;16.40;90.40;;;;;;2045183;28;20047;-92
2021/08/21 01:45:20;;;;;;;11.27;8.68;;;16.40;90.40;;;;;;2045661;28;20048;-92
2021/08/21 01:46:20;;;;;;;11.55;9.15;;;16.40;90.40;;;;;;2046816;28;20250;-93
2021/08/21 01:47:21;;;;;;;10.70;8.75;;;16.40;90.30;;;;;;2055375;28;20033;-92
2021/08/21 01:48:22;;;;;;;10.57;8.45;;;16.40;90.30;;;;;;2054134;28;20477;-92
2021/08/21 01:49:24;;;;;;;11.23;9.10;;;16.40;90.30;;;;;;2047535;28;20122;-92
2021/08/21 01:50:25;;;;;;;11.48;9.35;;;16.40;90.40;;;;;;2056693;28;20035;-93
2021/08/21 01:51:26;;;;;;;12.15;9.32;;;16.40;90.30;;;;;;2047794;28;20050;-92
2021/08/21 01:52:27;;;;;;;11.80;9.45;;;16.40;90.30;;;;;;2043945;29;20059;-92
2021/08/21 01:53:28;;;;;;;11.30;9.30;;;16.40;90.30;;;;;;2047521;28;20054;-92
2021/08/21 01:54:30;;;;;;;11.50;9.40;;;16.40;90.30;;;;;;2046599;28;20426;-92
2021/08/21 01:55:31;;;;;;;11.95;9.60;;;16.50;90.30;;;;;;2046464;28;20436;-92
2021/08/21 01:56:46;;;;;;;11.95;9.10;;;16.50;90.30;;;;;;2045734;28;20414;-92
2021/08/21 01:57:47;;;;;;;12.15;9.18;;;16.50;90.30;;;;;;2058131;28;20166;-92
2021/08/21 01:58:47;;;;;;;10.43;8.40;;;16.50;90.20;;;;;;2057082;28;20577;-92
2021/08/21 01:59:50;;;;;;;11.30;9.27;;;16.50;90.20;;;;;;2053880;28;20043;-92
2021/08/21 02:00:51;;;;;;;11.68;9.55;;;16.50;90.30;;;;;;2048032;28;20543;-93
2021/08/21 02:01:53;;;;;;;11.35;8.95;;;16.50;90.30;;;;;;2056809;28;21603;-92
2021/08/21 02:02:55;;;;;;;11.48;9.00;;;16.50;90.30;;;;;;2050068;28;20547;-92
2021/08/21 02:03:55;;;;;;;10.82;8.98;;;16.40;90.20;;;;;;2056355;28;20035;-92
2021/08/21 02:04:56;;;;;;;11.07;9.13;;;16.50;90.30;;;;;;2064622;28;20382;-92
2021/08/21 02:05:57;;;;;;;11.25;9.40;;;16.40;90.50;;;;;;2058345;28;20520;-93
2021/08/21 02:06:58;;;;;;;11.90;9.20;;;16.40;90.30;;;;;;2056713;28;20446;-93
2021/08/21 02:07:58;;;;;;;12.32;9.52;;;16.40;90.30;;;;;;2062020;28;20046;-92
2021/08/21 02:08:59;;;;;;;11.48;9.25;;;16.40;90.30;;;;;;2061954;28;20077;-93
2021/08/21 02:10:00;;;;;;;11.18;9.15;;;16.40;90.30;;;;;;2060539;28;20057;-92
2021/08/21 02:11:01;;;;;;;11.55;9.05;;;16.40;90.30;;;;;;2059904;28;20536;-93
2021/08/21 02:12:05;;;;;;;11.13;9.15;;;16.40;90.30;;;;;;2047174;28;20051;-93
2021/08/21 02:13:06;;;;;;;10.80;8.77;;;16.40;90.30;;;;;;2055572;28;20055;-92
2021/08/21 02:14:06;;;;;;;11.70;9.13;;;16.40;90.30;;;;;;2062261;28;20038;-94
2021/08/21 02:15:13;;;;;;;11.88;9.05;;;16.40;90.30;;;;;;2063004;28;20049;-93
2021/08/21 02:16:14;;;;;;;11.93;8.98;;;16.40;90.30;;;;;;2055528;28;20067;-92
2021/08/21 02:17:14;;;;;;;10.80;8.85;;;16.30;90.30;;;;;;2052742;28;20031;-93
2021/08/21 02:18:15;;;;;;;11.73;9.20;;;16.30;90.30;;;;;;2054486;28;20809;-93
2021/08/21 02:19:16;;;;;;;11.20;8.88;;;16.30;90.30;;;;;;2055182;28;20409;-93
2021/08/21 02:20:16;;;;;;;11.38;9.48;;;16.30;90.40;;;;;;2057246;28;20063;-93
2021/08/21 02:21:19;;;;;;;11.68;9.65;;;16.30;90.40;;;;;;2063614;28;20046;-92
2021/08/21 02:22:20;;;;;;;12.15;9.15;;;16.30;90.40;;;;;;2053884;28;20402;-93
2021/08/21 02:23:20;;;;;;;10.57;8.60;;;16.30;90.40;;;;;;2054835;28;20074;-92
2021/08/21 02:24:24;;;;;;;11.07;8.98;;;16.30;90.40;;;;;;2062455;28;20031;-93
2021/08/21 02:25:25;;;;;;;10.70;8.23;;;16.30;90.40;;;;;;2054860;28;20066;-93
2021/08/21 02:26:27;;;;;;;10.75;8.13;;;16.30;90.40;;;;;;2046486;28;20039;-93
2021/08/21 02:27:35;;;;;;;10.18;8.57;;;16.30;90.50;;;;;;2047399;28;20502;-93
2021/08/21 02:28:37;;;;;;;12.30;8.63;;;16.20;90.50;;;;;;2048094;28;20047;-93
2021/08/21 02:29:38;;;;;;;10.55;8.50;;;16.20;90.50;;;;;;2036075;28;20092;-93
2021/08/21 02:30:40;;;;;;;9.60;7.78;;;16.20;90.50;;;;;;2040594;29;20606;-93
2021/08/21 02:31:41;;;;;;;9.75;8.15;;;16.20;90.50;;;;;;2047278;28;20624;-93
2021/08/21 02:32:42;;;;;;;9.95;8.30;;;16.20;90.50;;;;;;2054872;28;20046;-92
2021/08/21 02:33:43;;;;;;;11.07;8.55;;;16.20;90.50;;;;;;2054970;28;20465;-93
2021/08/21 02:34:44;;;;;;;10.25;8.55;;;16.20;90.50;;;;;;1972682;29;2317075;-93
2021/08/21 02:35:44;;;;;;;9.85;8.25;;;16.20;90.50;;;;;;2038482;29;20142;-93
2021/08/21 02:36:45;;;;;;;10.68;8.57;;;16.20;90.60;;;;;;2048722;28;20525;-92
2021/08/21 02:37:46;;;;;;;10.80;8.40;;;16.20;90.60;;;;;;2059595;28;20041;-92
2021/08/21 02:38:47;;;;;;;10.02;8.30;;;16.20;90.60;;;;;;2039411;29;20163;-92
2021/08/21 02:39:47;;;;;;;9.75;8.38;;;16.20;90.60;;;;;;2039101;29;20071;-93
2021/08/21 02:40:49;;;;;;;10.52;8.93;;;16.20;90.50;;;;;;2046154;28;20055;-93
2021/08/21 02:41:49;;;;;;;11.38;8.48;;;16.20;90.50;;;;;;2047127;28;20047;-93
2021/08/21 02:42:50;;;;;;;10.88;8.85;;;16.20;90.50;;;;;;2056652;28;20485;-93
2021/08/21 02:43:51;;;;;;;10.85;8.55;;;16.20;90.50;;;;;;2038724;29;20048;-93
2021/08/21 02:44:51;;;;;;;10.77;8.65;;;16.20;90.50;;;;;;2031271;29;20640;-93
2021/08/21 02:45:52;;;;;;;11.27;8.90;;;16.20;90.40;;;;;;2031984;29;20123;-93
2021/08/21 02:46:53;;;;;;;10.90;8.75;;;16.20;90.50;;;;;;2038527;29;20043;-93
2021/08/21 02:47:54;;;;;;;10.27;8.35;;;16.20;90.80;;;;;;2046880;28;20136;-93
2021/08/21 02:48:54;;;;;;;10.93;8.52;;;16.20;90.50;;;;;;2055620;28;20044;-93
2021/08/21 02:49:55;;;;;;;11.35;9.00;;;16.20;90.50;;;;;;2046529;28;20102;-93
2021/08/21 02:50:56;;;;;;;11.35;8.80;;;16.10;90.50;;;;;;2047747;28;20040;-93
2021/08/21 02:51:57;;;;;;;11.05;8.52;;;16.10;90.50;;;;;;2053919;28;20031;-93
2021/08/21 02:52:57;;;;;;;11.05;8.80;;;16.10;90.60;;;;;;2052980;28;20481;-93
2021/08/21 02:53:58;;;;;;;11.15;8.80;;;16.10;90.60;;;;;;2045903;29;20051;-93
2021/08/21 02:54:59;;;;;;;11.13;8.75;;;16.10;90.50;;;;;;2054484;28;20049;-93
2021/08/21 02:56:02;;;;;;;10.45;8.23;;;16.10;90.60;;;;;;2061270;28;20086;-92
2021/08/21 02:57:03;;;;;;;10.70;8.23;;;16.10;90.60;;;;;;2039562;28;20040;-92
2021/08/21 02:58:03;;;;;;;10.75;8.50;;;16.10;90.60;;;;;;2054475;28;20122;-92
2021/08/21 02:59:04;;;;;;;10.80;8.88;;;16.10;90.60;;;;;;2054511;28;20066;-92
2021/08/21 03:00:05;;;;;;;11.07;8.98;;;16.10;90.60;;;;;;2046111;29;20742;-93
2021/08/21 03:01:06;;;;;;;10.95;8.95;;;16.10;90.60;;;;;;2038054;28;20094;-93
2021/08/21 03:02:07;;;;;;;10.73;9.13;;;16.10;90.60;;;;;;2047745;28;20039;-93
2021/08/21 03:03:09;;;;;;;10.65;9.13;;;16.10;90.60;;;;;;2052671;28;20071;-93
2021/08/21 03:04:09;;;;;;;11.10;9.23;;;16.10;90.50;;;;;;2053423;28;20046;-93
2021/08/21 03:05:10;;;;;;;11.20;8.98;;;16.10;90.50;;;;;;2045724;28;20684;-93
2021/08/21 03:06:11;;;;;;;11.18;8.80;;;16.10;90.50;;;;;;2046088;28;20054;-93
2021/08/21 03:07:12;;;;;;;11.32;9.10;;;16.10;90.50;;;;;;2045561;28;20035;-92
2021/08/21 03:08:12;;;;;;;11.65;8.95;;;16.20;90.50;;;;;;2046903;28;20039;-92
2021/08/21 03:09:13;;;;;;;13.02;9.73;;;16.10;90.50;;;;;;2041583;29;20094;-92
2021/08/21 03:10:14;;;;;;;12.10;9.45;;;16.10;90.50;;;;;;2056857;28;20035;-92
2021/08/21 03:11:15;;;;;;;11.88;9.35;;;16.10;90.50;;;;;;2064758;28;20015;-91
2021/08/21 03:12:16;;;;;;;11.00;8.48;;;16.20;90.50;;;;;;2061434;28;20030;-91
2021/08/21 03:13:17;;;;;;;11.27;9.02;;;16.20;90.50;;;;;;2054425;28;20694;-92
2021/08/21 03:14:17;;;;;;;11.10;9.10;;;16.20;90.50;;;;;;2043722;29;20053;-93
2021/08/21 03:15:18;;;;;;;10.48;8.43;;;16.20;90.40;;;;;;2055673;28;20052;-92
2021/08/21 03:16:19;;;;;;;10.55;8.38;;;16.20;90.40;;;;;;2057243;28;20043;-92
2021/08/21 03:17:21;;;;;;;10.93;8.63;;;16.20;90.40;;;;;;2056914;28;20046;-92
2021/08/21 03:18:21;;;;;;;10.93;8.82;;;16.20;90.40;;;;;;2041315;28;20051;-92
2021/08/21 03:19:22;;;;;;;10.98;8.98;;;16.20;90.40;;;;;;2048920;28;20046;-93
2021/08/21 03:20:23;;;;;;;10.75;8.60;;;16.20;90.40;;;;;;2042935;29;20035;-89
2021/08/21 03:21:24;;;;;;;10.13;8.45;;;16.20;90.40;;;;;;2056830;28;20039;-91
2021/08/21 03:22:25;;;;;;;11.00;9.48;;;16.20;90.50;;;;;;2054887;28;20050;-93
2021/08/21 03:23:25;;;;;;;10.02;8.80;;;16.20;90.50;;;;;;2055981;28;20023;-92
2021/08/21 03:24:26;;;;;;;11.65;8.95;;;16.20;90.50;;;;;;2057132;28;20067;-92
2021/08/21 03:25:27;;;;;;;10.27;8.77;;;16.30;90.50;;;;;;2050112;28;20026;-91
2021/08/21 03:26:28;;;;;;;11.38;8.73;;;16.30;90.50;;;;;;2045805;28;20042;-93
2021/08/21 03:27:28;;;;;;;11.90;9.07;;;16.30;90.50;;;;;;2047288;28;20040;-93
2021/08/21 03:28:29;;;;;;;10.45;8.98;;;16.30;90.50;;;;;;2046887;28;20066;-93
2021/08/21 03:29:30;;;;;;;11.57;9.40;;;16.30;90.50;;;;;;2044984;29;20153;-93
2021/08/21 03:30:30;;;;;;;11.05;9.10;;;16.30;90.50;;;;;;2038283;29;20032;-92
2021/08/21 03:31:31;;;;;;;11.63;9.07;;;16.30;90.50;;;;;;2034096;29;20096;-92
2021/08/21 03:32:33;;;;;;;11.25;9.35;;;16.30;90.50;;;;;;2039996;29;20288;-93
2021/08/21 03:33:34;;;;;;;11.55;9.38;;;16.30;90.50;;;;;;2055773;28;20460;-93
2021/08/21 03:34:34;;;;;;;11.40;9.00;;;16.30;90.50;;;;;;2055245;28;20031;-93
2021/08/21 03:35:35;;;;;;;12.43;9.50;;;16.30;90.50;;;;;;2054765;28;20133;-93
2021/08/21 03:36:36;;;;;;;11.43;8.98;;;16.30;90.50;;;;;;2054095;28;20047;-93
2021/08/21 03:37:37;;;;;;;11.32;9.35;;;16.30;90.50;;;;;;2062188;28;20547;-93
2021/08/21 03:38:38;;;;;;;10.43;8.65;;;16.30;90.50;;;;;;2069642;28;20034;-92
2021/08/21 03:39:39;;;;;;;12.07;9.55;;;16.40;90.50;;;;;;2062509;28;20148;-93
2021/08/21 03:40:40;;;;;;;11.10;9.23;;;16.40;90.50;;;;;;2070353;28;20777;-92
2021/08/21 03:41:41;;;;;;;11.93;9.57;;;16.40;90.50;;;;;;2053639;28;20039;-93
2021/08/21 03:42:44;;;;;;;11.63;9.18;;;16.40;90.50;;;;;;2036217;28;20063;-93
2021/08/21 03:43:45;;;;;;;11.30;9.57;;;16.40;90.50;;;;;;2062113;28;20052;-93
2021/08/21 03:44:46;;;;;;;12.45;9.18;;;16.40;90.50;;;;;;2046231;29;20085;-93
2021/08/21 03:45:46;;;;;;;11.10;9.55;;;16.40;90.50;;;;;;2044090;28;20035;-93
2021/08/21 03:46:47;;;;;;;11.73;9.93;;;16.40;90.50;;;;;;2054556;28;20134;-93
2021/08/21 03:47:47;;;;;;;12.30;9.73;;;16.40;90.50;;;;;;2062648;28;20038;-93
2021/08/21 03:48:48;;;;;;;11.32;9.63;;;16.40;90.50;;;;;;2060960;28;20049;-93
2021/08/21 03:49:49;;;;;;;12.02;9.63;;;16.40;90.50;;;;;;2045955;28;20058;-93
2021/08/21 03:50:49;;;;;;;11.80;9.68;;;16.50;90.50;;;;;;2046240;28;20051;-93
2021/08/21 03:51:50;;;;;;;12.13;9.48;;;16.50;90.50;;;;;;2046233;28;20043;-93
2021/08/21 03:52:51;;;;;;;12.00;9.80;;;16.50;90.50;;;;;;2052341;28;20078;-92
2021/08/21 03:53:52;;;;;;;12.05;9.75;;;16.50;90.50;;;;;;2061610;28;20057;-92
2021/08/21 03:54:52;;;;;;;12.98;10.30;;;16.50;90.50;;;;;;2054696;28;20085;-93
2021/08/21 03:55:53;;;;;;;13.35;10.32;;;16.50;90.50;;;;;;2039910;29;20067;-93
2021/08/21 03:56:54;;;;;;;11.82;9.23;;;16.50;90.50;;;;;;2036918;29;20028;-93
2021/08/21 03:57:55;;;;;;;11.55;9.40;;;16.60;90.50;;;;;;2060991;28;20078;-93
2021/08/21 03:58:55;;;;;;;11.77;9.25;;;16.60;90.50;;;;;;2059546;28;20473;-92
2021/08/21 03:59:56;;;;;;;11.95;9.55;;;16.60;90.50;;;;;;2038270;29;20036;-92
2021/08/21 04:00:56;;;;;;;11.38;9.15;;;16.60;90.50;;;;;;2053106;28;20047;-92
2021/08/21 04:01:59;;;;;;;10.73;8.95;;;16.60;90.50;;;;;;2055148;28;20064;-91
2021/08/21 04:02:59;;;;;;;11.77;9.23;;;16.60;90.50;;;;;;2056677;28;20079;-91
2021/08/21 04:04:00;;;;;;;11.05;8.75;;;16.60;90.50;;;;;;2064551;28;20173;-91
2021/08/21 04:05:01;;;;;;;11.45;9.20;;;16.60;90.50;;;;;;2064895;28;20026;-92
2021/08/21 04:06:03;;;;;;;10.80;8.75;;;16.60;90.50;;;;;;2046352;29;20803;-92
2021/08/21 04:07:03;;;;;;;10.65;8.88;;;16.60;90.50;;;;;;2050834;28;20057;-93
2021/08/21 04:08:04;;;;;;;11.40;8.98;;;16.60;90.50;;;;;;2046853;28;20466;-92
2021/08/21 04:09:05;;;;;;;11.00;8.88;;;16.60;90.50;;;;;;2043372;28;20178;-93
2021/08/21 04:10:06;;;;;;;10.35;8.60;;;16.60;90.60;;;;;;2053518;28;20420;-92
2021/08/21 04:11:07;;;;;;;10.40;8.60;;;16.60;90.60;;;;;;2051902;28;20047;-92
2021/08/21 04:12:08;;;;;;;11.25;8.73;;;16.60;90.60;;;;;;2040511;28;20049;-91
2021/08/21 04:13:09;;;;;;;10.38;8.73;;;16.60;90.50;;;;;;2049632;28;20063;-92
2021/08/21 04:14:09;;;;;;;12.85;10.10;;;16.60;90.50;;;;;;2063413;28;20039;-92
2021/08/21 04:15:10;;;;;;;10.77;9.07;;;16.60;90.50;;;;;;2064491;28;20027;-92
2021/08/21 04:16:11;;;;;;;12.35;9.30;;;16.60;90.50;;;;;;2054573;28;20047;-92
2021/08/21 04:17:11;;;;;;;12.43;9.70;;;16.70;90.50;;;;;;2054345;28;20038;-93
2021/08/21 04:18:12;;;;;;;10.65;8.88;;;16.70;90.50;;;;;;2046567;29;20106;-93
2021/08/21 04:19:13;;;;;;;11.80;9.18;;;16.70;90.50;;;;;;2040780;28;20051;-93
2021/08/21 04:20:13;;;;;;;10.88;9.15;;;16.70;90.50;;;;;;2029337;29;20068;-93
2021/08/21 04:21:14;;;;;;;11.80;9.38;;;16.70;90.50;;;;;;2040017;29;20055;-93
2021/08/21 04:22:15;;;;;;;12.32;9.63;;;16.70;90.40;;;;;;2063151;28;20046;-94
2021/08/21 04:23:15;;;;;;;11.98;9.95;;;16.70;90.50;;;;;;2046292;28;20109;-93
2021/08/21 04:24:16;;;;;;;11.02;9.23;;;16.70;90.50;;;;;;2038756;29;20094;-93
2021/08/21 04:25:18;;;;;;;11.90;9.65;;;16.80;90.50;;;;;;2047535;28;20113;-93
2021/08/21 04:26:20;;;;;;;11.40;9.65;;;16.80;90.50;;;;;;2055157;28;20043;-93
2021/08/21 04:27:21;;;;;;;11.55;9.43;;;16.80;90.50;;;;;;2049029;28;20031;-93
2021/08/21 04:28:21;;;;;;;11.68;9.68;;;16.80;90.50;;;;;;2055948;28;20066;-93
2021/08/21 04:29:22;;;;;;;12.10;8.82;;;16.80;90.50;;;;;;2049005;28;20047;-93
2021/08/21 04:30:23;;;;;;;11.50;9.43;;;16.80;90.50;;;;;;2048895;29;20039;-94
2021/08/21 04:31:25;;;;;;;12.48;9.70;;;16.80;90.50;;;;;;2052502;28;20069;-92
2021/08/21 04:32:25;;;;;;;10.98;9.32;;;16.80;90.50;;;;;;2050907;28;20048;-92
2021/08/21 04:33:27;;;;;;;11.43;9.60;;;16.80;90.50;;;;;;2050606;28;20096;-91
2021/08/21 04:34:27;;;;;;;12.48;9.40;;;16.80;90.50;;;;;;2059264;28;20015;-92
2021/08/21 04:35:28;;;;;;;13.98;10.05;;;16.80;90.50;;;;;;2057478;28;20130;-92
2021/08/21 04:36:29;;;;;;;11.13;9.25;;;16.80;90.50;;;;;;2065949;28;20045;-93
2021/08/21 04:37:29;;;;;;;11.27;9.25;;;16.80;90.50;;;;;;2048797;28;20049;-93
2021/08/21 04:38:32;;;;;;;11.07;9.50;;;16.80;90.50;;;;;;2047048;28;20091;-92
2021/08/21 04:39:33;;;;;;;10.23;8.57;;;16.80;90.60;;;;;;2048421;28;20098;-93
2021/08/21 04:40:34;;;;;;;11.07;9.27;;;16.80;90.90;;;;;;2050982;28;20031;-93
2021/08/21 04:41:34;;;;;;;11.88;9.40;;;16.80;90.60;;;;;;2055187;28;20545;-93
2021/08/21 04:42:35;;;;;;;11.43;9.50;;;16.70;90.60;;;;;;2063567;28;20053;-93
2021/08/21 04:43:36;;;;;;;12.43;9.70;;;16.70;90.60;;;;;;2061240;28;20070;-93
2021/08/21 04:44:38;;;;;;;11.95;9.50;;;16.70;90.60;;;;;;2053300;28;20529;-93
2021/08/21 04:45:38;;;;;;;11.70;9.25;;;16.70;90.70;;;;;;2055122;28;20049;-94
2021/08/21 04:46:39;;;;;;;12.10;9.63;;;16.70;90.70;;;;;;2045217;29;20576;-93
2021/08/21 04:47:40;;;;;;;11.98;9.35;;;16.70;90.70;;;;;;2046306;29;20043;-92
2021/08/21 04:48:42;;;;;;;11.68;9.32;;;16.70;90.70;;;;;;2051239;28;20044;-93
2021/08/21 04:49:42;;;;;;;11.20;9.38;;;16.70;90.70;;;;;;2069862;28;20065;-93
2021/08/21 04:50:43;;;;;;;12.95;9.68;;;16.70;90.70;;;;;;2062127;28;20042;-93
2021/08/21 04:51:44;;;;;;;12.43;10.02;;;16.70;90.70;;;;;;2052593;29;20071;-93
2021/08/21 04:52:44;;;;;;;11.75;9.90;;;16.70;90.80;;;;;;2049470;28;20532;-92
2021/08/21 04:53:45;;;;;;;12.40;9.63;;;16.70;90.80;;;;;;2054085;28;20504;-93
2021/08/21 04:54:46;;;;;;;13.75;10.02;;;16.70;90.80;;;;;;2062802;28;20527;-92
2021/08/21 04:55:47;;;;;;;13.10;9.82;;;16.70;90.80;;;;;;2056437;28;20050;-93
2021/08/21 04:56:48;;;;;;;13.20;9.95;;;16.70;90.80;;;;;;2048885;28;20035;-93
2021/08/21 04:57:50;;;;;;;13.07;9.55;;;16.70;90.80;;;;;;2047738;28;20040;-93
2021/08/21 04:58:50;;;;;;;12.70;9.82;;;16.70;90.80;;;;;;2047433;28;20043;-93
2021/08/21 04:59:51;;;;;;;11.52;9.77;;;16.70;90.80;;;;;;2057501;28;20525;-93
2021/08/21 05:00:52;;;;;;;11.70;9.00;;;16.70;90.80;;;;;;2055046;28;20497;-93
2021/08/21 05:01:54;;;;;;;12.45;9.70;;;16.70;90.80;;;;;;2056075;28;20049;-94
2021/08/21 05:02:58;;;;;;;12.75;10.23;;;16.70;90.80;;;;;;2055935;28;20043;-93
2021/08/21 05:03:58;;;;;;;11.65;9.38;;;16.70;90.80;;;;;;2047908;28;20480;-93
2021/08/21 05:05:00;;;;;;;11.48;9.18;;;16.70;90.80;;;;;;2055187;28;20047;-93
2021/08/21 05:06:01;;;;;;;11.98;9.75;;;16.70;90.80;;;;;;2058682;28;20034;-93
2021/08/21 05:07:03;;;;;;;12.27;9.77;;;16.70;90.80;;;;;;2063277;28;20496;-93
2021/08/21 05:08:04;;;;;;;11.68;9.25;;;16.70;90.80;;;;;;2053381;28;20056;-93
2021/08/21 05:09:05;;;;;;;11.25;9.40;;;16.70;90.80;;;;;;2048138;28;20043;-93
2021/08/21 05:10:06;;;;;;;11.13;8.73;;;16.70;90.80;;;;;;2055893;28;20492;-93
2021/08/21 05:11:06;;;;;;;11.80;8.90;;;16.70;90.80;;;;;;2046961;28;20039;-90
2021/08/21 05:12:07;;;;;;;11.43;8.90;;;16.70;90.80;;;;;;2055242;28;20030;-93
2021/08/21 05:13:08;;;;;;;11.73;9.32;;;16.70;90.80;;;;;;2055456;28;20066;-93
2021/08/21 05:14:09;;;;;;;12.50;9.32;;;16.70;90.80;;;;;;2055383;28;20038;-93
2021/08/21 05:15:12;;;;;;;12.00;9.45;;;16.80;90.80;;;;;;2046438;28;20584;-93